Time;durP1;ratioP1;P1;durP2;ratioP2;P2;SDS_P1;SDS_P2;PMS_P1;PMS_P2;Temp;Humidity;BMP_temperature;BMP_pressure;BME280_temperature;BME280_humidity;BME280_pressure;Samples;Min_cycle;Max_cycle;Signal;HPM_P1;HPM_P2
2023/05/05 00:01:32;;;;;;;14.30;8.43;;;;;;;13.39;73.92;99264.56;4944178;28;20046;-61
2023/05/05 00:04:00;;;;;;;15.07;9.07;;;;;;;13.41;74.74;99269.69;4942933;28;20126;-61
2023/05/05 00:06:27;;;;;;;16.73;8.95;;;;;;;13.29;74.93;99253.72;4933174;28;20663;-62
2023/05/05 00:08:55;;;;;;;19.30;11.30;;;;;;;13.22;76.81;99253.91;4951721;28;20046;-63
2023/05/05 00:11:24;;;;;;;11.73;7.60;;;;;;;13.22;74.96;99255.81;4941135;28;20271;-61
2023/05/05 00:13:51;;;;;;;15.20;7.65;;;;;;;13.47;71.13;99255.19;4939674;28;20098;-64
2023/05/05 00:16:19;;;;;;;12.48;7.30;;;;;;;13.54;70.56;99264.66;4946012;28;20052;-61
2023/05/05 00:18:46;;;;;;;9.45;6.68;;;;;;;13.55;70.65;99254.69;4940268;28;20049;-61
2023/05/05 00:21:13;;;;;;;14.60;7.18;;;;;;;13.51;72.70;99262.47;4943281;28;20114;-61
2023/05/05 00:23:40;;;;;;;29.40;19.42;;;;;;;13.27;78.19;99263.94;4953140;28;20063;-62
2023/05/05 00:26:07;;;;;;;32.25;20.88;;;;;;;13.00;80.61;99256.72;4952526;28;20050;-63
2023/05/05 00:28:36;;;;;;;27.70;17.92;;;;;;;12.86;81.78;99242.09;4959013;28;20047;-63
2023/05/05 00:31:03;;;;;;;26.20;17.95;;;;;;;12.51;84.54;99238.03;4942993;28;20406;-61
2023/05/05 00:33:30;;;;;;;24.98;15.25;;;;;;;12.51;84.29;99233.47;4951550;28;20049;-63
2023/05/05 00:35:57;;;;;;;19.95;10.73;;;;;;;12.56;81.37;99238.06;4945776;28;20504;-63
2023/05/05 00:38:25;;;;;;;21.13;9.90;;;;;;;12.81;78.71;99234.00;4950403;28;20549;-62
2023/05/05 00:40:52;;;;;;;17.35;10.32;;;;;;;12.70;79.21;99233.91;4946897;28;20253;-62
2023/05/05 00:43:19;;;;;;;20.92;12.15;;;;;;;12.57;81.81;99231.63;4957359;28;20483;-63
2023/05/05 00:45:47;;;;;;;18.65;11.50;;;;;;;12.47;83.56;99242.28;4955559;28;20050;-61
2023/05/05 00:48:15;;;;;;;17.85;11.45;;;;;;;12.50;82.53;99241.78;4949098;28;20039;-63
2023/05/05 00:50:43;;;;;;;17.80;10.50;;;;;;;12.53;81.53;99254.72;4927543;29;20059;-63
2023/05/05 00:53:10;;;;;;;16.85;9.98;;;;;;;12.59;80.32;99271.72;4956731;28;20521;-61
2023/05/05 00:55:37;;;;;;;17.98;10.25;;;;;;;12.50;80.76;99271.34;4943102;28;20055;-63
2023/05/05 00:58:04;;;;;;;19.98;11.27;;;;;;;11.79;88.57;99274.81;4941908;28;20051;-63
2023/05/05 01:00:31;;;;;;;16.45;10.45;;;;;;;11.31;92.52;99268.25;4941019;28;20702;-64
2023/05/05 01:03:00;;;;;;;18.92;11.65;;;;;;;11.14;93.74;99262.09;4938866;28;20048;-63
2023/05/05 01:05:28;;;;;;;17.98;11.63;;;;;;;11.14;93.48;99272.84;4941821;28;20400;-62
2023/05/05 01:08:02;;;;;;;17.73;12.48;;;;;;;11.57;91.09;99261.38;4944240;28;20039;-62
2023/05/05 01:10:32;;;;;;;19.83;11.88;;;;;;;12.06;84.79;99258.81;4955707;28;20047;-62
2023/05/05 01:13:05;;;;;;;21.50;10.47;;;;;;;12.22;83.71;99251.72;4934087;28;20144;-63
2023/05/05 01:15:34;;;;;;;20.63;11.07;;;;;;;12.47;81.36;99255.72;4946109;28;20042;-62
2023/05/05 01:18:06;;;;;;;20.67;11.32;;;;;;;12.50;80.76;99252.53;4940116;28;20442;-63
2023/05/05 01:20:36;;;;;;;19.23;10.20;;;;;;;12.60;80.94;99258.00;4942694;28;20421;-62
2023/05/05 01:23:06;;;;;;;12.93;9.23;;;;;;;12.62;81.01;99245.13;4939871;28;20055;-63
2023/05/05 01:25:49;;;;;;;13.65;9.27;;;;;;;12.60;81.14;99243.75;4949504;28;20043;-62
2023/05/05 01:28:24;;;;;;;16.63;9.05;;;;;;;12.67;80.91;99242.47;4954180;28;20488;-62
2023/05/05 01:31:06;;;;;;;13.07;8.95;;;;;;;12.66;81.13;99250.81;4959507;28;20525;-63
2023/05/05 01:33:37;;;;;;;12.63;8.68;;;;;;;12.47;82.60;99253.03;4942303;28;20105;-63
2023/05/05 01:36:07;;;;;;;14.45;9.38;;;;;;;12.32;83.79;99244.81;4947984;28;20126;-62
2023/05/05 01:38:36;;;;;;;16.23;9.43;;;;;;;12.39;83.77;99253.50;4942207;28;20050;-62
2023/05/05 01:41:05;;;;;;;13.18;8.48;;;;;;;12.52;83.08;99256.56;4937411;28;20103;-62
2023/05/05 01:43:33;;;;;;;18.63;8.48;;;;;;;12.59;82.98;99261.75;4943198;28;20131;-63
2023/05/05 01:46:01;;;;;;;14.18;7.72;;;;;;;12.51;83.03;99259.53;4947559;28;20552;-62
2023/05/05 01:48:28;;;;;;;13.30;8.93;;;;;;;12.45;83.38;99257.84;4945870;28;20051;-62
2023/05/05 01:50:57;;;;;;;14.02;9.55;;;;;;;12.32;84.33;99263.63;4952246;28;20446;-62
2023/05/05 01:53:24;;;;;;;15.73;9.73;;;;;;;12.20;85.58;99264.56;4944659;28;20050;-62
2023/05/05 01:55:51;;;;;;;14.48;9.55;;;;;;;12.00;86.99;99267.03;4943600;28;20134;-63
2023/05/05 01:58:18;;;;;;;14.20;9.48;;;;;;;11.89;88.33;99268.00;4944063;28;20052;-62
2023/05/05 02:00:46;;;;;;;14.55;10.00;;;;;;;11.96;88.28;99274.00;4943262;28;20138;-62
2023/05/05 02:03:16;;;;;;;14.57;9.68;;;;;;;12.00;87.94;99275.91;4938760;28;20372;-62
2023/05/05 02:05:44;;;;;;;14.00;9.95;;;;;;;11.94;88.71;99274.22;4948521;28;20043;-62
2023/05/05 02:08:13;;;;;;;17.08;9.70;;;;;;;11.92;89.14;99272.84;4945286;28;20447;-62
2023/05/05 02:10:40;;;;;;;14.02;9.23;;;;;;;11.85;90.06;99268.44;4956519;28;20429;-62
2023/05/05 02:13:07;;;;;;;18.10;9.60;;;;;;;12.03;89.19;99258.47;4939167;28;20044;-62
2023/05/05 02:15:35;;;;;;;18.50;10.40;;;;;;;12.06;89.03;99268.75;4948467;28;20046;-62
2023/05/05 02:18:02;;;;;;;13.07;9.60;;;;;;;12.17;88.81;99273.16;4939331;28;20126;-61
2023/05/05 02:20:29;;;;;;;15.95;9.82;;;;;;;12.22;89.08;99273.22;4957265;28;20449;-62
2023/05/05 02:22:56;;;;;;;14.55;9.63;;;;;;;12.27;88.79;99281.31;4944410;28;20050;-62
2023/05/05 02:25:24;;;;;;;14.15;9.02;;;;;;;12.06;90.15;99276.78;4950451;28;20183;-61
2023/05/05 02:27:51;;;;;;;15.85;9.95;;;;;;;12.04;90.68;99273.53;4943676;28;20531;-62
2023/05/05 02:30:18;;;;;;;15.32;10.07;;;;;;;12.00;91.29;99272.41;4942090;28;20071;-63
2023/05/05 02:32:47;;;;;;;18.00;10.40;;;;;;;11.81;92.85;99278.06;4936013;28;20052;-63
2023/05/05 02:35:19;;;;;;;12.73;9.63;;;;;;;12.01;93.11;99282.09;4947434;28;20051;-62
2023/05/05 02:37:50;;;;;;;15.18;9.80;;;;;;;12.09;92.54;99287.03;4942589;28;20486;-62
2023/05/05 02:40:22;;;;;;;14.43;9.45;;;;;;;12.23;92.16;99280.22;4942546;28;20438;-62
2023/05/05 02:42:52;;;;;;;15.25;9.23;;;;;;;12.25;92.35;99288.81;4939027;28;20395;-62
2023/05/05 02:45:21;;;;;;;17.10;11.20;;;;;;;12.23;93.32;99293.66;4944144;28;20422;-62
2023/05/05 02:47:49;;;;;;;14.82;9.65;;;;;;;12.27;93.29;99284.00;4937820;28;20498;-62
2023/05/05 02:50:17;;;;;;;22.95;11.30;;;;;;;12.14;94.10;99284.41;4942451;28;20498;-62
2023/05/05 02:53:05;;;;;;;22.25;12.43;;;;;;;11.80;97.17;99283.69;4947435;28;20054;-62
2023/05/05 02:55:37;;;;;;;21.45;12.07;;;;;;;12.13;96.09;99282.78;4948202;28;20049;-62
2023/05/05 02:58:07;;;;;;;20.35;11.50;;;;;;;12.22;95.53;99283.94;4949643;28;20477;-62
2023/05/05 03:00:43;;;;;;;18.85;11.25;;;;;;;12.14;94.97;99288.97;4940996;28;20059;-62
2023/05/05 03:03:15;;;;;;;19.67;10.35;;;;;;;12.06;96.09;99300.97;4943864;28;20047;-62
2023/05/05 03:05:48;;;;;;;19.83;11.68;;;;;;;12.09;96.30;99301.28;4946381;28;20040;-63
2023/05/05 03:08:17;;;;;;;15.45;10.73;;;;;;;12.02;96.85;99300.66;4953225;28;20052;-62
2023/05/05 03:10:47;;;;;;;18.50;10.77;;;;;;;12.17;97.50;99301.91;4939827;28;20382;-62
2023/05/05 03:13:16;;;;;;;17.58;10.40;;;;;;;12.66;94.50;99294.63;4959064;28;20044;-62
2023/05/05 03:15:46;;;;;;;14.75;10.32;;;;;;;12.70;93.41;99294.91;4948341;28;20126;-61
2023/05/05 03:18:16;;;;;;;14.05;10.25;;;;;;;12.61;94.27;99297.28;4941512;28;20046;-63
2023/05/05 03:20:47;;;;;;;21.27;10.82;;;;;;;12.51;94.60;99291.78;4943267;28;20054;-63
2023/05/05 03:23:17;;;;;;;19.75;10.73;;;;;;;12.43;95.67;99292.22;4939112;28;20126;-63
2023/05/05 03:25:48;;;;;;;15.57;10.00;;;;;;;12.29;96.40;99289.94;4938596;28;20039;-61
2023/05/05 03:28:36;;;;;;;20.13;11.13;;;;;;;12.04;98.48;99289.66;4939314;28;20074;-61
2023/05/05 03:31:11;;;;;;;18.08;11.38;;;;;;;12.01;98.16;99296.34;4949498;28;20489;-63
2023/05/05 03:33:39;;;;;;;15.93;10.50;;;;;;;11.98;96.06;99287.97;4962710;28;20034;-61
2023/05/05 03:36:06;;;;;;;21.10;10.77;;;;;;;11.84;97.58;99285.63;4946535;28;20039;-62
2023/05/05 03:38:34;;;;;;;14.70;10.90;;;;;;;11.80;99.77;99286.38;4953680;28;20043;-61
2023/05/05 03:41:02;;;;;;;16.73;11.10;;;;;;;11.74;100.00;99292.75;4945295;28;20056;-63
2023/05/05 03:43:29;;;;;;;16.17;11.23;;;;;;;11.94;100.00;99286.84;4948234;28;20126;-63
2023/05/05 03:45:59;;;;;;;19.67;11.18;;;;;;;12.12;99.08;99291.91;4942922;28;20469;-63
2023/05/05 03:48:26;;;;;;;16.80;10.65;;;;;;;11.89;98.81;99300.22;4937794;28;20126;-63
2023/05/05 03:50:53;;;;;;;19.55;10.38;;;;;;;11.57;97.68;99303.50;4948713;28;20074;-63
2023/05/05 03:53:22;;;;;;;17.92;10.65;;;;;;;11.19;98.63;99313.16;4946570;28;20059;-63
2023/05/05 03:55:49;;;;;;;15.63;10.18;;;;;;;11.08;99.68;99316.72;4944781;28;20048;-62
2023/05/05 03:58:16;;;;;;;15.80;9.75;;;;;;;10.97;99.25;99327.28;4954325;28;20130;-63
2023/05/05 04:00:43;;;;;;;19.10;10.68;;;;;;;10.66;100.00;99325.09;4952479;28;20356;-62
2023/05/05 04:03:12;;;;;;;16.23;10.52;;;;;;;10.73;100.00;99331.13;4955020;28;20075;-63
2023/05/05 04:05:39;;;;;;;13.82;10.07;;;;;;;10.86;100.00;99335.38;4947369;28;20134;-63
2023/05/05 04:08:06;;;;;;;15.25;10.95;;;;;;;11.21;100.00;99336.00;4944245;28;20044;-63
2023/05/05 04:10:33;;;;;;;20.35;9.98;;;;;;;11.30;100.00;99333.69;4957307;28;20046;-62
2023/05/05 04:13:01;;;;;;;16.60;10.40;;;;;;;11.30;100.00;99330.22;4944203;28;20043;-63
2023/05/05 04:15:29;;;;;;;15.07;9.50;;;;;;;11.42;100.00;99329.06;4950492;28;20050;-63
2023/05/05 04:17:56;;;;;;;13.80;9.60;;;;;;;11.60;100.00;99332.53;4948593;28;20050;-63
2023/05/05 04:20:26;;;;;;;12.38;9.18;;;;;;;11.79;99.87;99335.78;4954369;28;20577;-63
2023/05/05 04:22:54;;;;;;;12.97;9.13;;;;;;;11.89;98.03;99343.19;4955019;28;20135;-63
2023/05/05 04:25:22;;;;;;;14.05;9.32;;;;;;;12.21;94.94;99341.47;4948865;28;20066;-63
2023/05/05 04:27:50;;;;;;;13.40;8.77;;;;;;;11.41;95.28;99342.75;4952440;28;20043;-63
2023/05/05 04:30:17;;;;;;;13.27;9.50;;;;;;;11.28;100.00;99338.50;4943642;28;20039;-63
2023/05/05 04:32:45;;;;;;;13.65;9.68;;;;;;;11.55;100.00;99343.22;4948501;28;20071;-63
2023/05/05 04:35:12;;;;;;;14.70;9.43;;;;;;;11.93;100.00;99333.56;4947186;28;20106;-63
2023/05/05 04:37:41;;;;;;;15.80;9.35;;;;;;;12.47;99.31;99328.31;4950342;28;20478;-62
2023/05/05 04:40:09;;;;;;;10.75;8.77;;;;;;;12.68;97.35;99332.84;4942995;28;20370;-63
2023/05/05 04:42:38;;;;;;;13.45;8.32;;;;;;;13.41;92.65;99327.03;4945474;28;20044;-63
2023/05/05 04:45:06;;;;;;;13.63;8.60;;;;;;;13.89;89.89;99338.63;4950823;28;20628;-62
2023/05/05 04:47:37;;;;;;;10.15;7.55;;;;;;;14.97;83.60;99336.31;4948980;28;20090;-63
2023/05/05 04:50:04;;;;;;;9.15;7.60;;;;;;;14.53;85.34;99336.75;4949659;28;20047;-63
2023/05/05 04:52:31;;;;;;;10.88;7.60;;;;;;;14.93;84.70;99341.44;4921158;29;20142;-62
2023/05/05 04:55:00;;;;;;;10.40;6.80;;;;;;;16.70;72.55;99339.69;4942069;28;20044;-63
2023/05/05 04:57:27;;;;;;;11.57;7.43;;;;;;;16.96;68.52;99332.25;4950880;28;20070;-62
2023/05/05 04:59:54;;;;;;;16.58;7.82;;;;;;;16.27;70.58;99340.16;4947585;28;20447;-63
2023/05/05 05:02:22;;;;;;;13.55;7.07;;;;;;;15.00;75.69;99343.88;4940852;28;20046;-62
2023/05/05 05:04:50;;;;;;;13.20;7.68;;;;;;;14.33;80.36;99340.19;4944571;28;20123;-62
2023/05/05 05:07:20;;;;;;;13.00;7.15;;;;;;;13.93;82.54;99352.41;4936201;28;20043;-62
2023/05/05 05:09:47;;;;;;;12.57;7.68;;;;;;;13.40;84.32;99351.50;4948656;28;20115;-64
2023/05/05 05:12:18;;;;;;;11.95;7.28;;;;;;;13.32;90.55;99342.03;4941977;28;20055;-63
2023/05/05 05:14:45;;;;;;;12.77;7.10;;;;;;;13.43;94.25;99346.44;4944439;28;20047;-62
2023/05/05 05:17:15;;;;;;;8.75;6.88;;;;;;;13.69;94.33;99355.50;4949471;28;20091;-63
2023/05/05 05:19:42;;;;;;;8.82;6.97;;;;;;;13.86;93.61;99359.91;4943520;28;20047;-62
2023/05/05 05:22:09;;;;;;;9.15;7.13;;;;;;;13.91;93.51;99358.06;4950700;28;20043;-62
2023/05/05 05:24:39;;;;;;;13.38;7.10;;;;;;;14.15;92.32;99363.84;4953655;28;20255;-61
2023/05/05 05:27:08;;;;;;;11.38;7.18;;;;;;;14.23;91.44;99359.84;4944240;28;20292;-61
2023/05/05 05:29:37;;;;;;;9.80;6.85;;;;;;;14.27;88.50;99362.81;4951487;28;20354;-63
2023/05/05 05:32:04;;;;;;;11.05;7.07;;;;;;;14.16;89.09;99364.66;4956402;28;20511;-63
2023/05/05 05:34:31;;;;;;;8.40;6.47;;;;;;;14.51;87.70;99365.88;4933872;28;20048;-63
2023/05/05 05:37:00;;;;;;;8.85;6.95;;;;;;;15.00;84.96;99368.16;4939013;28;20044;-63
2023/05/05 05:39:27;;;;;;;10.80;7.45;;;;;;;16.35;78.35;99355.03;4939730;28;20043;-62
2023/05/05 05:41:54;;;;;;;9.23;6.68;;;;;;;17.86;73.64;99358.81;4938956;28;20561;-63
2023/05/05 05:44:24;;;;;;;12.32;6.88;;;;;;;18.40;68.75;99370.44;4946895;28;20060;-62
2023/05/05 05:46:52;;;;;;;11.98;6.30;;;;;;;18.57;67.71;99364.53;4944665;28;20043;-62
2023/05/05 05:49:19;;;;;;;6.90;5.60;;;;;;;18.61;67.63;99373.69;4945000;28;20059;-62
2023/05/05 05:51:47;;;;;;;9.65;5.30;;;;;;;19.03;65.33;99372.03;4940589;28;20875;-62
2023/05/05 05:54:14;;;;;;;7.47;5.05;;;;;;;18.46;68.39;99373.88;4923637;28;20048;-63
2023/05/05 05:56:43;;;;;;;9.30;5.53;;;;;;;18.33;69.19;99372.69;4953986;28;20469;-62
2023/05/05 05:59:11;;;;;;;9.75;5.80;;;;;;;18.10;71.27;99372.41;4948207;28;20502;-62
2023/05/05 06:01:40;;;;;;;7.43;6.00;;;;;;;18.84;67.95;99379.38;4947060;28;20164;-62
2023/05/05 06:04:09;;;;;;;9.65;5.57;;;;;;;19.11;66.81;99379.50;4938458;28;20047;-62
2023/05/05 06:06:38;;;;;;;11.60;5.70;;;;;;;19.51;65.75;99382.66;4950262;28;20065;-62
2023/05/05 06:09:05;;;;;;;10.02;5.28;;;;;;;19.33;66.84;99386.25;4948642;28;20469;-62
2023/05/05 06:11:33;;;;;;;12.32;5.47;;;;;;;18.83;68.39;99377.78;4941401;28;20050;-62
2023/05/05 06:14:01;;;;;;;9.30;5.95;;;;;;;17.61;73.73;99378.84;4938478;28;20052;-62
2023/05/05 06:16:28;;;;;;;11.88;6.55;;;;;;;17.03;76.48;99393.09;4940045;28;20050;-62
2023/05/05 06:18:56;;;;;;;9.85;6.05;;;;;;;17.43;74.96;99384.97;4944331;28;20448;-62
2023/05/05 06:21:26;;;;;;;12.60;5.90;;;;;;;16.93;77.98;99389.66;4942617;28;20043;-62
2023/05/05 06:23:53;;;;;;;8.43;6.03;;;;;;;17.09;77.48;99395.78;4938045;28;20051;-62
2023/05/05 06:26:21;;;;;;;8.75;5.82;;;;;;;17.19;77.86;99391.09;4944041;28;20105;-61
2023/05/05 06:28:48;;;;;;;8.18;5.72;;;;;;;17.10;78.14;99389.25;4933170;28;20343;-62
2023/05/05 06:31:16;;;;;;;8.18;5.72;;;;;;;17.79;76.07;99393.56;4945162;28;20051;-62
2023/05/05 06:33:43;;;;;;;8.73;5.80;;;;;;;19.49;68.75;99398.47;4936531;28;20411;-62
2023/05/05 06:36:10;;;;;;;12.93;6.00;;;;;;;19.63;67.03;99400.44;4937291;28;20118;-62
2023/05/05 06:38:38;;;;;;;10.18;5.40;;;;;;;21.59;59.82;99396.13;4949239;28;20040;-62
2023/05/05 06:41:05;;;;;;;8.77;4.85;;;;;;;21.53;59.83;99398.16;4935862;28;20077;-62
2023/05/05 06:43:32;;;;;;;8.95;5.28;;;;;;;21.52;59.26;99405.56;4943978;28;20134;-63
2023/05/05 06:46:01;;;;;;;7.00;5.20;;;;;;;20.29;63.32;99399.22;4936645;28;20052;-62
2023/05/05 06:48:28;;;;;;;6.53;4.90;;;;;;;20.22;65.13;99407.00;4949454;28;20039;-62
2023/05/05 06:50:56;;;;;;;5.97;4.78;;;;;;;21.56;60.39;99402.19;4937345;28;20095;-62
2023/05/05 06:53:23;;;;;;;7.70;5.07;;;;;;;21.60;59.12;99409.44;4940284;28;20426;-62
2023/05/05 06:55:51;;;;;;;9.15;5.10;;;;;;;22.65;55.62;99402.53;4944175;28;20121;-62
2023/05/05 06:58:18;;;;;;;5.85;4.65;;;;;;;22.50;57.13;99406.50;4944341;28;20039;-62
2023/05/05 07:00:45;;;;;;;9.05;4.40;;;;;;;24.74;50.86;99402.94;4936079;28;20529;-61
2023/05/05 07:03:13;;;;;;;6.35;4.40;;;;;;;23.78;52.02;99408.00;4933330;28;20102;-62
2023/05/05 07:05:40;;;;;;;9.82;4.60;;;;;;;23.31;53.26;99399.69;4939531;28;20050;-62
2023/05/05 07:08:08;;;;;;;7.40;4.13;;;;;;;23.21;54.02;99408.22;4941849;28;20044;-62
2023/05/05 07:10:35;;;;;;;6.63;4.45;;;;;;;21.93;57.36;99398.25;4944961;28;20071;-62
2023/05/05 07:13:04;;;;;;;7.53;4.85;;;;;;;22.21;57.21;99395.34;4940691;28;20046;-62
2023/05/05 07:15:32;;;;;;;6.68;4.85;;;;;;;21.59;58.99;99405.13;4933750;28;20075;-62
2023/05/05 07:18:01;;;;;;;5.78;4.70;;;;;;;21.11;61.96;99406.47;4939506;28;20122;-63
2023/05/05 07:20:28;;;;;;;7.00;4.60;;;;;;;21.87;60.18;99400.31;4949312;28;20047;-62
2023/05/05 07:22:55;;;;;;;9.10;4.75;;;;;;;22.04;60.42;99405.03;4944146;28;20077;-62
2023/05/05 07:25:22;;;;;;;7.78;5.03;;;;;;;21.28;62.00;99408.53;4941986;28;20394;-62
2023/05/05 07:27:49;;;;;;;9.50;5.00;;;;;;;20.21;68.50;99408.09;4937165;28;20050;-62
2023/05/05 07:30:17;;;;;;;8.07;5.10;;;;;;;20.03;67.07;99410.59;4953966;28;20127;-63
2023/05/05 07:32:44;;;;;;;7.32;4.90;;;;;;;17.72;77.40;99408.56;4943768;28;20417;-62
2023/05/05 07:35:11;;;;;;;7.65;5.13;;;;;;;18.90;74.91;99416.22;4942444;28;20071;-63
2023/05/05 07:37:38;;;;;;;8.32;5.70;;;;;;;19.03;73.85;99410.06;4955941;28;20047;-63
2023/05/05 07:40:07;;;;;;;8.35;5.20;;;;;;;20.08;70.20;99415.16;4944051;28;20035;-63
2023/05/05 07:42:34;;;;;;;7.75;5.55;;;;;;;21.09;66.18;99419.63;4951431;28;20039;-63
2023/05/05 07:45:01;;;;;;;9.05;5.18;;;;;;;21.54;65.60;99418.84;4942056;28;20154;-62
2023/05/05 07:47:29;;;;;;;6.63;5.10;;;;;;;20.24;69.20;99421.09;4939575;28;20055;-63
2023/05/05 07:49:56;;;;;;;7.07;5.05;;;;;;;19.57;69.82;99419.56;4931759;28;20502;-62
2023/05/05 07:52:24;;;;;;;12.95;5.43;;;;;;;19.40;71.50;99419.28;4937798;28;20054;-62
2023/05/05 07:54:51;;;;;;;7.30;5.00;;;;;;;20.56;67.44;99427.59;4943589;28;20138;-62
2023/05/05 07:57:18;;;;;;;8.63;5.55;;;;;;;19.43;72.23;99415.19;4937121;28;20075;-62
2023/05/05 07:59:45;;;;;;;7.70;5.10;;;;;;;18.63;74.39;99416.81;4940944;28;20150;-62
2023/05/05 08:02:12;;;;;;;6.63;4.93;;;;;;;19.99;71.33;99415.06;4936047;28;20048;-62
2023/05/05 08:04:40;;;;;;;6.65;5.15;;;;;;;19.45;73.41;99421.13;4942296;28;20058;-62
2023/05/05 08:07:08;;;;;;;12.07;5.32;;;;;;;19.91;69.87;99412.22;4935970;28;20048;-62
2023/05/05 08:09:35;;;;;;;9.00;5.60;;;;;;;19.41;73.80;99415.47;4939994;28;20046;-62
2023/05/05 08:12:02;;;;;;;9.43;5.45;;;;;;;20.87;68.39;99414.94;4941630;28;20556;-61
2023/05/05 08:14:29;;;;;;;7.68;5.25;;;;;;;20.06;71.35;99419.28;4941491;28;20395;-62
2023/05/05 08:16:56;;;;;;;7.25;5.20;;;;;;;20.94;67.53;99406.34;4940084;28;20410;-62
2023/05/05 08:19:23;;;;;;;9.43;5.25;;;;;;;19.49;71.46;99422.13;4955387;28;20055;-62
2023/05/05 08:21:52;;;;;;;7.65;5.18;;;;;;;21.22;66.81;99411.72;4942969;28;20070;-63
2023/05/05 08:24:19;;;;;;;7.47;4.90;;;;;;;21.06;67.54;99413.97;4941486;28;20094;-62
2023/05/05 08:26:47;;;;;;;7.70;5.90;;;;;;;20.26;70.19;99414.25;4943742;28;20130;-62
2023/05/05 08:29:14;;;;;;;8.43;5.25;;;;;;;20.56;68.43;99417.50;4938477;28;20121;-62
2023/05/05 08:31:41;;;;;;;7.38;5.70;;;;;;;20.46;68.69;99410.31;4947288;28;20462;-62
2023/05/05 08:34:08;;;;;;;7.93;5.15;;;;;;;21.48;66.03;99410.00;4942893;28;20039;-62
2023/05/05 08:36:35;;;;;;;11.38;5.10;;;;;;;21.02;68.62;99407.56;4939277;28;20055;-62
2023/05/05 08:39:04;;;;;;;7.68;5.15;;;;;;;21.94;64.16;99405.28;4937533;28;20487;-62
2023/05/05 08:41:31;;;;;;;6.70;4.68;;;;;;;22.40;61.24;99390.41;4938688;28;20075;-62
2023/05/05 08:43:58;;;;;;;6.90;4.60;;;;;;;23.37;59.00;99398.41;4942305;28;20585;-62
2023/05/05 08:46:25;;;;;;;7.47;5.28;;;;;;;22.56;58.28;99391.56;4939945;28;20835;-62
2023/05/05 08:48:52;;;;;;;6.65;4.95;;;;;;;22.44;59.86;99385.94;4938365;28;20142;-62
2023/05/05 08:51:19;;;;;;;7.90;5.10;;;;;;;22.53;60.52;99394.16;4943669;28;20804;-62
2023/05/05 08:53:56;;;;;;;8.52;5.22;;;;;;;19.77;69.87;99395.88;4946827;28;20455;-62
2023/05/05 08:56:26;;;;;;;9.20;5.70;;;;;;;20.62;66.16;99389.06;4944406;28;20059;-61
2023/05/05 08:58:53;;;;;;;10.45;5.75;;;;;;;19.90;69.89;99384.22;4933775;28;20467;-61
2023/05/05 09:01:20;;;;;;;7.72;5.35;;;;;;;19.71;71.92;99378.81;4943641;28;20051;-61
2023/05/05 09:03:47;;;;;;;8.00;6.03;;;;;;;20.22;69.18;99379.81;4940142;28;20046;-62
2023/05/05 09:06:14;;;;;;;10.38;5.20;;;;;;;21.58;65.53;99375.44;4945576;28;20040;-61
2023/05/05 09:08:41;;;;;;;8.57;5.80;;;;;;;21.23;63.84;99381.41;4934178;28;20057;-61
2023/05/05 09:11:08;;;;;;;9.18;5.88;;;;;;;21.00;65.59;99379.78;4941615;28;20479;-62
2023/05/05 09:13:37;;;;;;;10.73;5.97;;;;;;;20.88;62.89;99386.56;4944118;28;20671;-62
2023/05/05 09:16:04;;;;;;;9.75;5.70;;;;;;;21.71;62.40;99382.72;4945360;28;20124;-62
2023/05/05 09:18:31;;;;;;;9.18;4.97;;;;;;;21.03;66.37;99388.16;4940178;28;20047;-61
2023/05/05 09:20:59;;;;;;;9.45;5.50;;;;;;;21.78;63.08;99390.47;4952192;28;20050;-62
2023/05/05 09:23:26;;;;;;;9.05;5.40;;;;;;;21.60;63.66;99379.44;4955543;28;20082;-62
2023/05/05 09:26:03;;;;;;;6.47;4.68;;;;;;;21.59;64.89;99391.50;4940192;28;20048;-62
2023/05/05 09:28:30;;;;;;;7.93;4.68;;;;;;;21.40;64.89;99391.66;4935772;28;20042;-61
2023/05/05 09:31:11;;;;;;;7.55;4.45;;;;;;;22.68;61.48;99395.63;4950250;28;20462;-63
2023/05/05 09:33:38;;;;;;;6.05;4.20;;;;;;;23.09;58.10;99391.66;4945966;28;20047;-61
2023/05/05 09:36:06;;;;;;;8.07;4.20;;;;;;;22.43;58.52;99384.31;4939135;28;20077;-62
2023/05/05 09:38:34;;;;;;;5.97;3.88;;;;;;;22.88;58.32;99392.28;4948709;28;20066;-62
2023/05/05 09:41:01;;;;;;;6.63;3.50;;;;;;;22.40;58.73;99391.22;4944814;28;20391;-62
2023/05/05 09:43:28;;;;;;;7.20;3.72;;;;;;;24.07;53.67;99401.81;4943869;28;20043;-62
2023/05/05 09:46:07;;;;;;;5.45;3.20;;;;;;;24.81;51.86;99396.94;4941375;28;20130;-62
2023/05/05 09:48:34;;;;;;;6.55;3.40;;;;;;;24.30;52.34;99399.59;4944708;28;20470;-62
2023/05/05 09:51:01;;;;;;;6.05;3.13;;;;;;;25.15;49.06;99400.53;4948892;28;20101;-63
2023/05/05 09:53:28;;;;;;;5.50;3.17;;;;;;;24.18;51.01;99388.53;4946640;28;20047;-62
2023/05/05 09:55:55;;;;;;;4.43;3.10;;;;;;;23.99;52.51;99388.97;4943752;28;20043;-62
2023/05/05 09:58:23;;;;;;;5.38;3.25;;;;;;;24.32;51.92;99389.13;4953981;28;20075;-62
2023/05/05 10:00:50;;;;;;;5.63;2.95;;;;;;;24.36;51.20;99388.47;4945279;28;20117;-62
2023/05/05 10:03:19;;;;;;;5.40;3.00;;;;;;;23.22;52.70;99382.50;4935216;28;20134;-62
2023/05/05 10:05:47;;;;;;;8.32;4.00;;;;;;;23.41;54.07;99374.78;4946615;28;20039;-62
2023/05/05 10:08:14;;;;;;;7.35;3.03;;;;;;;24.59;51.70;99381.59;4946806;28;20039;-62
2023/05/05 10:10:46;;;;;;;8.52;2.85;;;;;;;23.71;52.24;99380.31;4945604;28;20047;-62
2023/05/05 10:13:13;;;;;;;5.60;3.10;;;;;;;22.08;57.15;99375.97;4950234;28;20048;-62
2023/05/05 10:15:42;;;;;;;6.07;2.80;;;;;;;23.23;53.72;99373.97;4952309;28;20056;-61
2023/05/05 10:18:09;;;;;;;4.40;2.58;;;;;;;25.03;49.25;99382.06;4941271;28;20063;-61
2023/05/05 10:20:38;;;;;;;3.85;1.90;;;;;;;24.06;46.61;99374.75;4945483;28;20082;-61
2023/05/05 10:23:06;;;;;;;4.40;2.10;;;;;;;24.20;45.55;99372.59;4947640;28;20110;-61
2023/05/05 10:25:35;;;;;;;3.97;2.10;;;;;;;24.71;45.81;99373.47;4944868;28;20300;-61
2023/05/05 10:28:03;;;;;;;3.45;1.85;;;;;;;24.07;45.52;99362.69;4942587;28;20051;-61
2023/05/05 10:30:30;;;;;;;4.18;1.90;;;;;;;24.80;44.26;99361.63;4942196;28;20055;-61
2023/05/05 10:33:00;;;;;;;4.47;1.83;;;;;;;25.11;41.48;99362.03;4944310;28;20134;-62
2023/05/05 10:35:28;;;;;;;5.00;1.80;;;;;;;25.36;40.01;99362.94;4942044;28;20074;-61
2023/05/05 10:37:56;;;;;;;3.45;1.55;;;;;;;26.20;40.17;99365.38;4945429;28;20039;-61
2023/05/05 10:40:23;;;;;;;5.27;1.83;;;;;;;26.25;39.52;99358.88;4946757;28;20075;-62
2023/05/05 10:42:50;;;;;;;3.65;1.80;;;;;;;26.35;40.04;99363.91;4946932;28;20042;-62
2023/05/05 10:45:17;;;;;;;4.35;2.00;;;;;;;26.24;40.89;99362.78;4945874;28;20044;-61
2023/05/05 10:47:44;;;;;;;5.13;2.13;;;;;;;25.49;41.61;99352.81;4953046;28;20050;-61
2023/05/05 10:50:16;;;;;;;3.97;2.30;;;;;;;26.10;40.28;99352.13;4938787;28;20067;-62
2023/05/05 10:52:46;;;;;;;2.83;1.90;;;;;;;26.16;39.18;99344.44;4940956;28;20138;-62
2023/05/05 10:55:16;;;;;;;1.92;1.55;;;;;;;25.84;39.29;99344.19;4946807;28;20376;-62
2023/05/05 10:57:45;;;;;;;4.75;2.10;;;;;;;25.83;40.39;99334.34;4938349;28;20051;-62
2023/05/05 11:00:51;;;;;;;2.90;1.88;;;;;;;25.13;41.61;99332.31;4943853;28;20506;-62
2023/05/05 11:03:22;;;;;;;6.40;2.00;;;;;;;25.80;41.16;99332.28;4939875;28;20487;-63
2023/05/05 11:06:19;;;;;;;4.03;2.10;;;;;;;24.94;41.54;99324.59;4946511;28;20371;-62
2023/05/05 11:08:46;;;;;;;3.83;2.10;;;;;;;24.79;42.69;99318.91;4875656;29;20091;-61
2023/05/05 11:11:14;;;;;;;4.32;1.85;;;;;;;25.49;41.62;99328.13;4916493;28;20475;-61
2023/05/05 11:13:41;;;;;;;4.90;2.00;;;;;;;25.79;42.16;99325.19;4945567;28;20043;-61
2023/05/05 11:16:43;;;;;;;3.78;1.67;;;;;;;26.30;40.68;99311.13;4935333;28;20129;-61
2023/05/05 11:19:47;;;;;;;7.85;3.70;;;;;;;27.32;38.48;99301.56;4937314;28;20053;-61
2023/05/05 11:22:15;;;;;;;3.92;2.00;;;;;;;27.05;37.88;99313.34;4901030;28;20303;-61
2023/05/05 11:24:42;;;;;;;4.13;2.00;;;;;;;25.50;41.12;99301.47;4955261;28;20047;-61
2023/05/05 11:27:11;;;;;;;3.53;1.98;;;;;;;25.50;43.02;99296.78;4947090;28;20081;-61
2023/05/05 11:30:07;;;;;;;8.43;2.30;;;;;;;25.34;41.41;99298.59;4945980;28;20305;-61
2023/05/05 11:32:34;;;;;;;5.07;1.90;;;;;;;25.74;41.19;99287.00;4935938;28;20045;-61
2023/05/05 11:35:02;;;;;;;4.93;1.85;;;;;;;25.57;42.63;99288.78;4938068;28;20072;-63